createdAt,value
2022-11-21T00:01:22.304Z,31.10
2022-11-21T00:03:49.423Z,35.10
2022-11-21T00:06:16.172Z,30.97
2022-11-21T00:08:43.146Z,30.73
2022-11-21T00:11:09.736Z,34.67
2022-11-21T00:13:36.154Z,30.03
2022-11-21T00:16:06.512Z,31.33
2022-11-21T00:18:34.624Z,29.37
2022-11-21T00:21:20.487Z,26.50
2022-11-21T00:23:47.950Z,30.93
2022-11-21T00:26:18.900Z,28.93
2022-11-21T00:28:45.687Z,28.97
2022-11-21T00:31:23.179Z,34.37
2022-11-21T00:33:49.546Z,30.63
2022-11-21T00:36:16.010Z,26.60
2022-11-21T00:38:45.449Z,29.37
2022-11-21T00:41:11.920Z,28.70
2022-11-21T00:43:38.257Z,28.53
2022-11-21T00:46:05.284Z,31.13
2022-11-21T00:48:32.255Z,26.03
2022-11-21T00:51:00.454Z,28.07
2022-11-21T00:53:34.154Z,29.37
2022-11-21T00:56:00.562Z,28.67
2022-11-21T00:58:27.355Z,28.93
2022-11-21T01:01:02.694Z,29.83
2022-11-21T01:03:30.709Z,29.03
2022-11-21T01:06:01.426Z,29.43
2022-11-21T01:08:27.806Z,29.40
2022-11-21T01:10:54.197Z,30.60
2022-11-21T01:13:20.584Z,33.30
2022-11-21T01:15:47.092Z,32.50
2022-11-21T01:18:13.536Z,29.23
2022-11-21T01:20:40.460Z,28.20
2022-11-21T01:23:08.747Z,30.60
2022-11-21T01:25:35.773Z,27.70
2022-11-21T01:28:02.130Z,33.73
2022-11-21T01:30:28.463Z,34.07
2022-11-21T01:32:54.841Z,31.40
2022-11-21T01:35:21.220Z,32.67
2022-11-21T01:37:48.454Z,34.30
2022-11-21T01:40:15.650Z,34.37
2022-11-21T01:43:01.304Z,28.90
2022-11-21T01:45:52.927Z,30.83
2022-11-21T01:48:22.856Z,32.53
2022-11-21T01:50:49.415Z,35.90
2022-11-21T01:53:15.853Z,30.83
2022-11-21T01:55:42.749Z,33.30
2022-11-21T01:58:10.684Z,28.57
2022-11-21T02:00:40.542Z,28.50
2022-11-21T02:03:12.563Z,27.00
2022-11-21T02:05:40.592Z,28.40
2022-11-21T02:08:16.499Z,29.97
2022-11-21T02:10:50.142Z,31.30
2022-11-21T02:13:16.669Z,32.30
2022-11-21T02:15:43.332Z,31.67
2022-11-21T02:18:11.544Z,29.37
2022-11-21T02:20:45.899Z,32.73
2022-11-21T02:23:24.395Z,35.03
2022-11-21T02:25:51.481Z,31.17
2022-11-21T02:28:21.229Z,30.47
2022-11-21T02:30:47.653Z,28.27
2022-11-21T02:33:14.065Z,34.10
2022-11-21T02:35:40.966Z,33.67
2022-11-21T02:38:19.596Z,30.87
2022-11-21T02:40:57.982Z,30.80
2022-11-21T02:43:29.715Z,34.77
2022-11-21T02:45:56.291Z,36.47
2022-11-21T02:48:22.694Z,32.33
2022-11-21T02:50:49.063Z,31.03
2022-11-21T02:53:17.846Z,34.00
2022-11-21T02:55:44.707Z,33.17
2022-11-21T02:58:11.943Z,32.63
2022-11-21T03:00:40.887Z,31.60
2022-11-21T03:03:07.653Z,32.50
2022-11-21T03:05:34.247Z,32.47
2022-11-21T03:08:00.888Z,37.40
2022-11-21T03:10:27.416Z,37.37
2022-11-21T03:13:00.875Z,36.50
2022-11-21T03:15:30.520Z,37.60
2022-11-21T03:17:57.643Z,37.37
2022-11-21T03:20:24.261Z,39.57
2022-11-21T03:22:53.320Z,36.83
2022-11-21T03:25:20.177Z,38.13
2022-11-21T03:27:47.012Z,45.10
2022-11-21T03:30:13.770Z,44.63
2022-11-21T03:32:40.158Z,41.40
2022-11-21T03:35:06.854Z,36.17
2022-11-21T03:37:33.467Z,43.43
2022-11-21T03:39:59.825Z,46.83
2022-11-21T03:42:26.222Z,41.33
2022-11-21T03:44:52.613Z,42.70
2022-11-21T03:47:19.013Z,51.13
2022-11-21T03:49:45.347Z,51.60
2022-11-21T03:52:11.829Z,40.20
2022-11-21T03:54:38.214Z,38.37
2022-11-21T03:57:04.610Z,35.93
2022-11-21T03:59:30.973Z,37.53
2022-11-21T04:01:57.389Z,40.07
2022-11-21T04:04:23.906Z,36.00
2022-11-21T04:06:50.240Z,34.53
2022-11-21T04:09:16.557Z,39.70
2022-11-21T04:11:42.872Z,39.40
2022-11-21T04:14:09.241Z,45.90
2022-11-21T04:16:35.625Z,41.50
2022-11-21T04:19:02.093Z,39.40
2022-11-21T04:21:28.461Z,41.07
2022-11-21T04:23:54.870Z,42.27
2022-11-21T04:26:21.219Z,38.50
2022-11-21T04:28:47.669Z,34.53
2022-11-21T04:31:14.039Z,35.07
2022-11-21T04:33:40.465Z,38.83
2022-11-21T04:36:08.427Z,33.87
2022-11-21T04:38:34.795Z,36.50
2022-11-21T04:41:01.208Z,34.30
2022-11-21T04:43:27.584Z,32.27
2022-11-21T04:45:54.079Z,42.30
2022-11-21T04:48:23.163Z,38.30
2022-11-21T04:50:49.482Z,57.87
2022-11-21T04:53:15.947Z,35.87
2022-11-21T04:55:42.355Z,34.63
2022-11-21T04:58:08.879Z,31.50
2022-11-21T05:00:35.302Z,28.77
2022-11-21T05:03:03.731Z,37.90
2022-11-21T05:05:30.189Z,37.67
2022-11-21T05:07:56.641Z,31.87
2022-11-21T05:10:23.041Z,38.73
2022-11-21T05:13:18.315Z,34.47
2022-11-21T05:15:45.055Z,37.43
2022-11-21T05:18:11.772Z,27.40
2022-11-21T05:20:38.182Z,30.50
2022-11-21T05:23:04.631Z,29.10
2022-11-21T05:25:31.132Z,24.20
2022-11-21T05:27:57.513Z,22.60
2022-11-21T05:30:24.020Z,19.53
2022-11-21T05:32:50.409Z,24.47
2022-11-21T05:35:16.769Z,31.23
2022-11-21T05:37:43.254Z,26.97
2022-11-21T05:40:10.224Z,27.37
2022-11-21T05:42:58.595Z,27.80
2022-11-21T05:45:25.622Z,28.60
2022-11-21T05:47:52.087Z,27.77
2022-11-21T05:50:18.532Z,28.77
2022-11-21T05:52:44.914Z,23.20
2022-11-21T05:55:11.247Z,35.23
2022-11-21T05:57:37.799Z,32.37
2022-11-21T06:00:04.754Z,26.83
2022-11-21T06:02:49.796Z,28.87
2022-11-21T06:05:16.316Z,37.00
2022-11-21T06:07:42.829Z,33.33
2022-11-21T06:10:09.421Z,35.63
2022-11-21T06:12:35.925Z,49.77
2022-11-21T06:15:02.385Z,39.50
2022-11-21T06:17:28.744Z,36.10
2022-11-21T06:19:55.103Z,52.40
2022-11-21T06:22:21.428Z,45.13
2022-11-21T06:24:47.874Z,43.57
2022-11-21T06:27:14.320Z,37.97
2022-11-21T06:29:40.883Z,41.73
2022-11-21T06:32:07.315Z,39.30
2022-11-21T06:34:33.705Z,35.40
2022-11-21T06:37:00.196Z,39.13
2022-11-21T06:39:26.572Z,46.23
2022-11-21T06:41:53.072Z,44.17
2022-11-21T06:44:19.683Z,46.70
2022-11-21T06:46:50.912Z,53.23
2022-11-21T06:49:17.976Z,57.30
2022-11-21T06:51:44.358Z,42.17
2022-11-21T06:54:16.730Z,40.00
2022-11-21T06:56:44.149Z,40.93
2022-11-21T06:59:10.765Z,47.87
2022-11-21T07:01:37.323Z,36.80
2022-11-21T07:04:03.883Z,32.83
2022-11-21T07:06:30.207Z,41.50
2022-11-21T07:09:32.245Z,36.47
2022-11-21T07:11:43.446Z,38.70
2022-11-21T07:14:09.948Z,36.73
2022-11-21T07:16:36.427Z,34.93
2022-11-21T07:19:02.882Z,35.30
2022-11-21T07:21:29.393Z,33.23
2022-11-21T07:23:55.789Z,35.60
2022-11-21T07:26:22.262Z,29.97
2022-11-21T07:28:48.670Z,30.20
2022-11-21T07:31:15.128Z,33.17
2022-11-21T07:33:43.603Z,27.20
2022-11-21T07:36:11.402Z,29.73
2022-11-21T07:38:38.042Z,29.93
2022-11-21T07:41:04.413Z,26.40
2022-11-21T07:43:30.898Z,30.23
2022-11-21T07:45:57.305Z,29.43
2022-11-21T07:48:23.680Z,29.10
2022-11-21T07:50:50.106Z,30.00
2022-11-21T07:53:16.564Z,30.67
2022-11-21T07:55:42.863Z,34.27
2022-11-21T07:58:14.947Z,27.70
2022-11-21T08:00:47.829Z,29.92
2022-11-21T08:03:14.252Z,29.83
2022-11-21T08:05:42.545Z,29.90
2022-11-21T08:08:10.398Z,27.50
2022-11-21T08:10:38.895Z,29.17
2022-11-21T08:13:05.494Z,27.60
2022-11-21T08:15:32.013Z,29.47
2022-11-21T08:17:58.359Z,29.37
2022-11-21T08:20:24.820Z,28.50
2022-11-21T08:22:57.353Z,31.17
2022-11-21T08:25:23.803Z,27.40
2022-11-21T08:27:50.190Z,29.80
2022-11-21T08:30:16.674Z,27.07
2022-11-21T08:32:43.084Z,24.37
2022-11-21T08:35:09.602Z,28.87
2022-11-21T08:37:35.956Z,27.70
2022-11-21T08:40:02.397Z,27.27
2022-11-21T08:42:29.125Z,26.67
2022-11-21T08:44:55.609Z,29.73
2022-11-21T08:47:22.183Z,26.43
2022-11-21T08:49:48.886Z,27.87
2022-11-21T08:52:17.353Z,24.77
2022-11-21T08:54:44.943Z,24.87
2022-11-21T08:57:12.200Z,26.83
2022-11-21T08:59:38.572Z,26.87
2022-11-21T09:02:05.160Z,26.73
2022-11-21T09:04:31.609Z,23.87
2022-11-21T09:06:58.110Z,27.40
2022-11-21T09:09:25.775Z,24.60
2022-11-21T09:11:52.629Z,26.50
2022-11-21T09:14:37.396Z,24.17
2022-11-21T09:17:22.111Z,23.73
2022-11-21T09:19:49.025Z,28.90
2022-11-21T09:22:15.542Z,28.03
2022-11-21T09:24:41.888Z,23.63
2022-11-21T09:27:08.265Z,25.67
2022-11-21T09:29:34.672Z,25.37
2022-11-21T09:32:01.168Z,28.57
2022-11-21T09:34:27.837Z,27.63
2022-11-21T09:36:55.475Z,21.40
2022-11-21T09:39:22.124Z,26.57
2022-11-21T09:42:07.685Z,27.77
2022-11-21T09:44:52.323Z,26.43
2022-11-21T09:47:26.758Z,25.80
2022-11-21T09:50:07.398Z,26.13
2022-11-21T09:52:56.258Z,25.00
2022-11-21T09:55:39.957Z,25.03
2022-11-21T09:58:32.645Z,19.97
2022-11-21T10:03:30.390Z,24.77
2022-11-21T10:06:21.596Z,29.23
2022-11-21T10:09:00.542Z,26.00
2022-11-21T10:12:01.969Z,29.35
2022-11-21T10:15:20.760Z,31.13
2022-11-21T10:17:52.831Z,24.05
2022-11-21T10:20:33.688Z,24.20
2022-11-21T10:23:24.965Z,26.20
2022-11-21T10:26:14.052Z,26.07
2022-11-21T10:28:51.960Z,34.10
2022-11-21T10:31:19.817Z,25.30
2022-11-21T10:33:46.807Z,24.83
2022-11-21T10:36:41.989Z,26.70
2022-11-21T10:39:17.378Z,24.30
2022-11-21T10:42:01.329Z,32.57
2022-11-21T10:44:48.147Z,26.63
2022-11-21T10:47:27.514Z,26.35
2022-11-21T10:50:15.513Z,25.30
2022-11-21T10:52:58.624Z,32.77
2022-11-21T10:55:25.064Z,28.83
2022-11-21T10:57:52.533Z,25.25
2022-11-21T11:00:24.653Z,28.73
2022-11-21T11:02:56.797Z,26.25
2022-11-21T11:05:28.783Z,34.53
2022-11-21T11:08:04.273Z,30.85
2022-11-21T11:10:33.209Z,32.65
2022-11-21T11:13:44.557Z,34.92
2022-11-21T11:16:10.671Z,28.40
2022-11-21T11:21:46.309Z,30.77
2022-11-21T11:24:12.648Z,39.20
2022-11-21T11:26:53.419Z,30.80
2022-11-21T11:29:28.031Z,31.50
2022-11-21T11:31:57.556Z,32.38
2022-11-21T11:34:57.179Z,32.45
2022-11-21T11:37:40.427Z,32.25
2022-11-21T11:40:31.997Z,30.42
2022-11-21T11:43:45.087Z,30.42
2022-11-21T11:46:37.054Z,30.33
2022-11-21T11:49:25.132Z,30.23
2022-11-21T11:51:55.115Z,28.98
2022-11-21T11:54:38.139Z,27.85
2022-11-21T11:57:04.566Z,31.15
2022-11-21T11:59:41.435Z,30.75
2022-11-21T12:02:15.659Z,28.27
2022-11-21T12:04:50.960Z,30.50
2022-11-21T12:08:39.081Z,28.67
2022-11-21T12:11:00.641Z,33.13
2022-11-21T12:13:29.813Z,30.70
2022-11-21T12:16:05.891Z,33.42
2022-11-21T12:18:47.132Z,36.58
2022-11-21T12:21:15.789Z,31.90
2022-11-21T12:23:48.696Z,29.70
2022-11-21T12:26:18.014Z,30.77
2022-11-21T12:28:54.832Z,28.48
2022-11-21T12:31:32.430Z,29.45
2022-11-21T12:34:16.850Z,28.55
2022-11-21T12:36:57.020Z,29.58
2022-11-21T12:39:36.904Z,33.17
2022-11-21T12:42:40.972Z,33.22
2022-11-21T12:45:29.037Z,25.13
2022-11-21T12:48:30.938Z,26.05
2022-11-21T12:51:53.571Z,26.85
2022-11-21T12:54:41.997Z,24.60
2022-11-21T12:57:12.482Z,23.15
2022-11-21T12:59:43.953Z,21.40
2022-11-21T13:02:40.705Z,25.00
2022-11-21T13:05:12.857Z,22.38
2022-11-21T13:10:14.387Z,20.63
2022-11-21T13:12:46.377Z,24.02
2022-11-21T13:15:19.160Z,18.23
2022-11-21T13:17:52.313Z,21.13
2022-11-21T13:20:34.372Z,18.35
2022-11-21T13:23:07.682Z,18.55
2022-11-21T13:25:39.154Z,15.60
2022-11-21T13:28:12.004Z,21.85
2022-11-21T13:30:51.914Z,19.55
2022-11-21T13:33:48.548Z,14.65
2022-11-21T13:36:29.857Z,16.88
2022-11-21T13:38:59.957Z,23.30
2022-11-21T13:41:53.964Z,16.88
2022-11-21T13:44:32.390Z,19.48
2022-11-21T13:47:00.573Z,14.57
2022-11-21T13:49:36.733Z,14.63
2022-11-21T13:52:20.736Z,16.38
2022-11-21T13:55:11.954Z,14.20
2022-11-21T13:58:19.805Z,14.32
2022-11-21T14:01:04.957Z,11.40
2022-11-21T14:03:43.506Z,10.05
2022-11-21T14:06:32.836Z,16.92
2022-11-21T14:09:17.798Z,12.55
2022-11-21T14:12:02.859Z,14.73
2022-11-21T14:14:38.297Z,12.82
2022-11-21T14:17:24.123Z,12.10
2022-11-21T14:19:54.656Z,11.70
2022-11-21T14:22:45.467Z,15.93
2022-11-21T14:25:20.504Z,14.10
2022-11-21T14:27:51.252Z,11.18
2022-11-21T14:30:41.168Z,9.45
2022-11-21T14:33:31.877Z,9.35
2022-11-21T14:36:01.910Z,12.00
2022-11-21T14:38:30.560Z,14.25
2022-11-21T14:41:27.889Z,12.45
2022-11-21T14:43:57.130Z,13.52
2022-11-21T14:46:25.887Z,12.35
2022-11-21T14:48:57.373Z,14.05
2022-11-21T14:51:28.117Z,9.80
2022-11-21T14:53:54.725Z,7.25
2022-11-21T14:56:29.065Z,10.70
2022-11-21T14:58:57.884Z,10.52
2022-11-21T15:01:32.106Z,9.75
2022-11-21T15:04:06.391Z,13.02
2022-11-21T15:06:44.817Z,13.40
2022-11-21T15:10:26.134Z,11.27
2022-11-21T15:12:05.791Z,14.25
2022-11-21T15:14:39.109Z,12.18
2022-11-21T15:17:14.726Z,13.43
2022-11-21T15:19:47.248Z,15.63
2022-11-21T15:22:28.299Z,13.45
2022-11-21T15:25:25.638Z,13.75
2022-11-21T15:28:09.295Z,10.70
2022-11-21T15:30:37.897Z,14.68
2022-11-21T15:33:13.210Z,14.38
2022-11-21T15:35:56.026Z,12.40
2022-11-21T15:38:27.279Z,14.23
2022-11-21T15:41:03.033Z,9.47
2022-11-21T15:43:38.393Z,13.07
2022-11-21T15:46:13.677Z,9.65
2022-11-21T15:48:40.084Z,10.07
2022-11-21T15:51:09.524Z,11.55
2022-11-21T15:53:35.900Z,12.75
2022-11-21T15:56:02.271Z,13.15
2022-11-21T15:58:28.640Z,12.05
2022-11-21T16:00:55.042Z,9.52
2022-11-21T16:03:21.539Z,9.98
2022-11-21T16:05:48.130Z,10.35
2022-11-21T16:08:14.647Z,11.75
2022-11-21T16:10:40.995Z,13.23
2022-11-21T16:13:07.509Z,11.63
2022-11-21T16:15:34.708Z,16.30
2022-11-21T16:18:01.081Z,34.90
2022-11-21T16:20:28.667Z,11.18
2022-11-21T16:22:55.576Z,14.98
2022-11-21T16:25:21.982Z,16.35
2022-11-21T16:27:48.507Z,13.52
2022-11-21T16:30:15.093Z,12.27
2022-11-21T16:32:41.726Z,10.57
2022-11-21T16:35:08.552Z,12.40
2022-11-21T16:37:34.879Z,14.65
2022-11-21T16:40:01.368Z,8.43
2022-11-21T16:42:27.836Z,14.88
2022-11-21T16:44:54.457Z,14.27
2022-11-21T16:47:20.957Z,13.10
2022-11-21T16:49:48.664Z,11.63
2022-11-21T16:52:15.658Z,11.80
2022-11-21T16:54:42.023Z,10.23
2022-11-21T16:57:08.356Z,12.00
2022-11-21T16:59:36.994Z,11.27
2022-11-21T17:02:05.990Z,12.65
2022-11-21T17:04:32.839Z,12.93
2022-11-21T17:07:00.960Z,12.35
2022-11-21T17:09:27.607Z,12.65
2022-11-21T17:11:57.064Z,14.10
2022-11-21T17:14:25.859Z,14.48
2022-11-21T17:16:52.314Z,13.93
2022-11-21T17:19:18.837Z,12.50
2022-11-21T17:21:45.232Z,10.75
2022-11-21T17:24:14.741Z,11.25
2022-11-21T17:26:41.127Z,13.25
2022-11-21T17:29:07.737Z,14.82
2022-11-21T17:31:36.786Z,12.73
2022-11-21T17:34:06.139Z,9.52
2022-11-21T17:36:34.485Z,13.70
2022-11-21T17:39:01.293Z,11.65
2022-11-21T17:41:30.484Z,11.30
2022-11-21T17:43:58.508Z,13.20
2022-11-21T17:46:26.081Z,10.73
2022-11-21T17:48:57.267Z,14.10
2022-11-21T17:51:29.710Z,11.43
2022-11-21T17:53:56.300Z,11.73
2022-11-21T17:56:25.542Z,14.40
2022-11-21T17:58:52.590Z,11.70
2022-11-21T18:01:20.109Z,11.52
2022-11-21T18:03:48.881Z,10.15
2022-11-21T18:06:17.320Z,14.48
2022-11-21T18:08:45.784Z,16.05
2022-11-21T18:11:13.798Z,18.23
2022-11-21T18:13:40.421Z,15.25
2022-11-21T18:16:13.414Z,12.20
2022-11-21T18:18:40.377Z,11.27
2022-11-21T18:21:12.133Z,13.43
2022-11-21T18:23:39.081Z,11.68
2022-11-21T18:26:12.261Z,15.48
2022-11-21T18:28:38.982Z,10.73
2022-11-21T18:31:13.958Z,12.00
2022-11-21T18:33:41.496Z,12.77
2022-11-21T18:36:12.127Z,8.85
2022-11-21T18:38:50.514Z,8.07
2022-11-21T18:41:24.329Z,9.52
2022-11-21T18:43:56.000Z,9.45
2022-11-21T18:46:24.194Z,12.70
2022-11-21T18:49:07.714Z,11.77
2022-11-21T18:51:35.455Z,9.98
2022-11-21T18:54:06.765Z,9.50
2022-11-21T18:56:33.427Z,8.23
2022-11-21T18:58:59.809Z,15.65
2022-11-21T19:01:28.831Z,10.15
2022-11-21T19:03:56.039Z,12.55
2022-11-21T19:06:25.479Z,12.50
2022-11-21T19:08:53.554Z,12.07
2022-11-21T19:11:21.773Z,10.85
2022-11-21T19:13:48.843Z,12.50
2022-11-21T19:16:17.953Z,13.88
2022-11-21T19:18:54.961Z,9.32
2022-11-21T19:21:31.149Z,11.90
2022-11-21T19:23:57.514Z,8.68
2022-11-21T19:26:23.948Z,8.02
2022-11-21T19:28:50.244Z,11.18
2022-11-21T19:31:18.424Z,13.20
2022-11-21T19:33:45.242Z,13.27
2022-11-21T19:36:17.099Z,10.35
2022-11-21T19:38:50.229Z,14.10
2022-11-21T19:41:22.455Z,9.32
2022-11-21T19:43:54.454Z,14.30
2022-11-21T19:46:28.464Z,10.70
2022-11-21T19:48:56.229Z,15.73
2022-11-21T19:51:27.563Z,7.80
2022-11-21T19:53:54.094Z,12.53
2022-11-21T19:56:23.801Z,9.57
2022-11-21T19:58:51.058Z,9.88
2022-11-21T20:01:19.932Z,13.05
2022-11-21T20:03:48.518Z,10.15
2022-11-21T20:06:23.951Z,12.35
2022-11-21T20:08:54.003Z,14.57
2022-11-21T20:11:21.717Z,11.90
2022-11-21T20:13:49.614Z,11.73
2022-11-21T20:16:42.370Z,9.93
2022-11-21T20:19:11.690Z,12.68
2022-11-21T20:21:39.052Z,11.02
2022-11-21T20:24:06.165Z,10.65
2022-11-21T20:26:33.375Z,14.57
2022-11-21T20:29:00.305Z,9.30
2022-11-21T20:31:29.270Z,15.57
2022-11-21T20:34:00.945Z,13.40
2022-11-21T20:36:31.992Z,12.43
2022-11-21T20:39:02.544Z,10.07
2022-11-21T20:41:31.578Z,10.38
2022-11-21T20:46:50.621Z,10.93
2022-11-21T20:49:17.455Z,12.13
2022-11-21T20:54:30.813Z,10.45
2022-11-21T20:56:57.515Z,8.23
2022-11-21T20:59:25.685Z,13.80
2022-11-21T21:01:52.322Z,9.60
2022-11-21T21:04:19.031Z,10.75
2022-11-21T21:06:45.483Z,12.98
2022-11-21T21:09:13.737Z,11.68
2022-11-21T21:11:55.408Z,9.98
2022-11-21T21:14:22.455Z,10.50
2022-11-21T21:16:49.174Z,7.60
2022-11-21T21:19:15.942Z,8.60
2022-11-21T21:21:42.252Z,11.50
2022-11-21T21:24:10.087Z,7.70
2022-11-21T21:26:42.613Z,8.85
2022-11-21T21:29:18.399Z,12.15
2022-11-21T21:31:50.503Z,10.20
2022-11-21T21:34:18.052Z,8.65
2022-11-21T21:36:46.638Z,11.75
2022-11-21T21:39:12.970Z,9.73
2022-11-21T21:41:44.597Z,11.82
2022-11-21T21:44:11.663Z,14.93
2022-11-21T21:46:38.097Z,9.90
2022-11-21T21:49:04.779Z,13.82
2022-11-21T21:51:32.090Z,13.60
2022-11-21T21:53:59.812Z,10.98
2022-11-21T21:56:27.604Z,10.32
2022-11-21T21:58:56.074Z,12.93
2022-11-21T22:01:30.762Z,9.75
2022-11-21T22:04:01.001Z,10.27
2022-11-21T22:06:28.582Z,9.90
2022-11-21T22:08:55.878Z,9.85
2022-11-21T22:11:27.016Z,8.70
2022-11-21T22:13:58.812Z,10.55
2022-11-21T22:16:25.641Z,9.23
2022-11-21T22:18:53.326Z,7.97
2022-11-21T22:21:23.697Z,7.70
2022-11-21T22:24:17.836Z,8.48
2022-11-21T22:26:37.806Z,8.73
2022-11-21T22:29:04.330Z,9.88
2022-11-21T22:31:34.322Z,8.90
2022-11-21T22:34:01.753Z,8.30
2022-11-21T22:36:28.268Z,10.43
2022-11-21T22:38:56.200Z,9.60
2022-11-21T22:41:24.864Z,13.75
2022-11-21T22:43:58.116Z,13.23
2022-11-21T22:46:27.004Z,13.10
2022-11-21T22:48:55.835Z,15.00
2022-11-21T22:51:25.001Z,13.20
2022-11-21T22:53:52.144Z,8.80
2022-11-21T22:56:23.628Z,8.73
2022-11-21T22:58:51.038Z,10.75
2022-11-21T23:01:19.947Z,11.43
2022-11-21T23:03:46.681Z,9.00
2022-11-21T23:06:16.028Z,10.82
2022-11-21T23:08:43.300Z,10.15
2022-11-21T23:11:12.530Z,14.43
2022-11-21T23:13:43.744Z,11.77
2022-11-21T23:16:11.827Z,10.93
2022-11-21T23:18:39.245Z,12.45
2022-11-21T23:21:06.208Z,10.93
2022-11-21T23:23:32.883Z,9.07
2022-11-21T23:26:00.043Z,12.32
2022-11-21T23:28:27.642Z,9.57
2022-11-21T23:30:54.239Z,13.05
2022-11-21T23:33:20.966Z,10.05
2022-11-21T23:35:47.826Z,9.57
2022-11-21T23:38:15.940Z,9.60
2022-11-21T23:40:44.970Z,10.50
2022-11-21T23:43:11.475Z,9.63
2022-11-21T23:45:37.907Z,10.95
2022-11-21T23:48:04.475Z,5.88
2022-11-21T23:50:30.891Z,14.57
2022-11-21T23:52:57.225Z,10.88
2022-11-21T23:55:23.717Z,7.63
2022-11-21T23:57:50.757Z,10.00
